Terminal Aerodrome Forecast
Issued by NWS

Home | Current Version | Previous Version | Text Only | Print | Product List | Glossary On
Versions: 1 2 3 4 5 6 7 8 9 10 11 12 13 14 15 16 17 18 19 20 21 22 23 24 25 26 27 28 29
000
FTUS44 KLIX 050520
TAFHUM
TAF
KHUM 050520Z 0506/0606 11005KT P6SM SCT250
      TEMPO 0509/0512 4SM BR SCT015
     FM051500 11013KT P6SM SCT040
     FM060000 12007KT P6SM SCT250=

USA.gov is the U.S. government's official web portal to all federal, state and local government web resources and services.